Time;durP1;ratioP1;P1;durP2;ratioP2;P2;SDS_P1;SDS_P2;PMS_P1;PMS_P2;Temp;Humidity;BMP_temperature;BMP_pressure;BME280_temperature;BME280_humidity;BME280_pressure;Samples;Min_cycle;Max_cycle;Signal;HPM_P1;HPM_P2
2023/04/23 05:00:27;;;;;;;1.77;1.67;;;13.80;97.20;;;;;;1754793;28;20214;-65
2023/04/23 05:01:19;;;;;;;1.50;1.40;;;13.80;97.20;;;;;;1754749;28;20315;-66
2023/04/23 05:02:11;;;;;;;2.15;1.60;;;13.80;97.20;;;;;;1754715;28;20194;-65
2023/04/23 05:03:02;;;;;;;1.70;1.52;;;13.80;97.20;;;;;;1754767;28;20618;-65
2023/04/23 05:03:54;;;;;;;2.25;1.45;;;13.80;97.20;;;;;;1754434;28;20197;-65
2023/04/23 05:04:45;;;;;;;1.63;1.52;;;13.80;97.20;;;;;;1754412;28;20204;-66
2023/04/23 05:05:36;;;;;;;1.27;1.10;;;13.80;97.20;;;;;;1754764;28;20292;-65
2023/04/23 05:06:27;;;;;;;1.45;1.35;;;13.80;97.20;;;;;;1754249;28;20201;-65
2023/04/23 05:07:19;;;;;;;1.37;1.27;;;13.80;97.20;;;;;;1754654;28;20194;-65
2023/04/23 05:08:10;;;;;;;1.70;1.60;;;13.80;97.20;;;;;;1754715;28;20436;-65
2023/04/23 05:09:02;;;;;;;1.90;1.60;;;13.90;97.20;;;;;;1754671;28;20205;-65
2023/04/23 05:09:53;;;;;;;1.52;1.40;;;13.90;97.20;;;;;;1754723;28;20198;-65
2023/04/23 05:10:45;;;;;;;3.83;1.50;;;13.90;97.20;;;;;;1754583;28;20241;-65
2023/04/23 05:11:36;;;;;;;1.90;1.55;;;14.00;97.20;;;;;;1754705;28;20210;-65
2023/04/23 05:12:27;;;;;;;1.53;1.30;;;14.00;97.20;;;;;;1754638;28;20221;-65
2023/04/23 05:13:18;;;;;;;1.83;1.58;;;14.00;97.20;;;;;;1754666;28;20440;-65
2023/04/23 05:14:10;;;;;;;1.47;1.23;;;14.00;97.20;;;;;;1754722;28;20226;-65
2023/04/23 05:15:01;;;;;;;2.15;1.10;;;14.00;97.20;;;;;;1754623;28;20205;-65
2023/04/23 05:15:54;;;;;;;1.70;1.50;;;14.10;97.20;;;;;;1754793;28;20205;-66
2023/04/23 05:16:44;;;;;;;1.20;1.10;;;14.10;97.20;;;;;;1754272;28;20201;-64
2023/04/23 05:17:36;;;;;;;2.10;1.60;;;14.10;97.20;;;;;;1754794;28;20197;-64
2023/04/23 05:18:27;;;;;;;6.10;1.48;;;14.10;97.20;;;;;;1753651;28;20198;-65
2023/04/23 05:19:20;;;;;;;1.35;1.25;;;14.10;97.20;;;;;;1754661;28;20194;-65
2023/04/23 05:20:11;;;;;;;2.50;1.50;;;14.10;97.20;;;;;;1754595;28;20219;-65
2023/04/23 05:21:03;;;;;;;1.20;1.10;;;14.10;97.20;;;;;;1754722;28;20669;-66
2023/04/23 05:21:53;;;;;;;1.40;1.30;;;14.10;97.20;;;;;;1754672;28;20447;-65
2023/04/23 05:22:45;;;;;;;2.90;2.60;;;14.10;97.20;;;;;;1754725;28;20212;-66
2023/04/23 05:23:36;;;;;;;2.30;2.10;;;14.10;97.20;;;;;;1754587;28;20213;-68
2023/04/23 05:24:28;;;;;;;2.60;2.40;;;14.10;97.20;;;;;;1754590;28;20204;-65
2023/04/23 05:25:18;;;;;;;2.85;2.55;;;14.10;97.20;;;;;;1754722;28;20443;-65
2023/04/23 05:26:10;;;;;;;2.13;1.97;;;14.10;97.20;;;;;;1754724;28;20197;-65
2023/04/23 05:27:01;;;;;;;1.90;1.80;;;14.10;97.20;;;;;;1754327;28;20205;-65
2023/04/23 05:27:53;;;;;;;1.47;1.37;;;14.10;97.20;;;;;;1754586;28;20201;-65
2023/04/23 05:28:43;;;;;;;1.70;1.30;;;14.10;97.20;;;;;;1755699;28;20443;-65
2023/04/23 05:29:35;;;;;;;1.67;1.40;;;14.10;97.20;;;;;;1755971;28;20201;-65
2023/04/23 05:30:26;;;;;;;1.63;1.10;;;14.10;97.20;;;;;;1755744;28;20212;-65
2023/04/23 05:31:19;;;;;;;1.27;1.00;;;14.10;97.20;;;;;;1756089;28;20193;-64
2023/04/23 05:32:10;;;;;;;2.10;1.10;;;14.10;97.20;;;;;;1756078;28;20935;-65
2023/04/23 05:33:02;;;;;;;1.23;1.13;;;14.10;97.20;;;;;;1755792;28;20675;-65
2023/04/23 05:33:52;;;;;;;2.30;1.52;;;14.10;97.20;;;;;;1755912;28;20204;-65
2023/04/23 05:34:44;;;;;;;1.20;1.00;;;14.10;97.20;;;;;;1755643;28;20683;-64
2023/04/23 05:35:35;;;;;;;1.08;1.00;;;14.10;97.20;;;;;;1756012;28;20213;-64
2023/04/23 05:36:27;;;;;;;1.33;1.13;;;14.10;97.20;;;;;;1748872;28;20194;-64
2023/04/23 05:37:18;;;;;;;1.83;1.58;;;14.10;97.20;;;;;;1749164;28;20246;-65
2023/04/23 05:38:10;;;;;;;1.53;1.07;;;14.10;97.20;;;;;;1749272;28;20267;-65
2023/04/23 05:39:01;;;;;;;2.53;1.40;;;14.10;97.20;;;;;;1749152;28;20206;-65
2023/04/23 05:39:52;;;;;;;1.27;1.17;;;14.20;97.20;;;;;;1749238;28;20237;-65
2023/04/23 05:40:43;;;;;;;1.67;1.25;;;14.20;97.20;;;;;;1749055;28;20233;-64
2023/04/23 05:41:35;;;;;;;1.97;1.10;;;14.20;97.20;;;;;;1748966;28;20198;-64
2023/04/23 05:42:26;;;;;;;1.10;1.00;;;14.30;97.20;;;;;;1749184;28;20589;-64
2023/04/23 05:43:17;;;;;;;1.30;1.20;;;14.30;97.20;;;;;;1749113;28;20198;-66
2023/04/23 05:44:08;;;;;;;2.57;1.20;;;14.30;97.20;;;;;;1749066;28;20264;-64
2023/04/23 05:44:59;;;;;;;1.27;1.17;;;14.40;97.20;;;;;;1749045;28;20432;-65
2023/04/23 05:45:51;;;;;;;0.90;0.90;;;14.40;97.20;;;;;;1748983;28;20229;-64
2023/04/23 05:46:43;;;;;;;1.20;1.10;;;14.40;97.20;;;;;;1748624;28;20217;-64
2023/04/23 05:47:35;;;;;;;1.25;1.15;;;14.40;97.20;;;;;;1753680;28;20194;-64
2023/04/23 05:48:26;;;;;;;1.40;1.23;;;14.40;97.20;;;;;;1755894;28;20213;-64
2023/04/23 05:49:17;;;;;;;1.10;1.00;;;14.30;97.20;;;;;;1755963;28;20208;-66
2023/04/23 05:50:10;;;;;;;1.52;1.10;;;14.30;97.20;;;;;;1755898;28;20585;-64
2023/04/23 05:51:02;;;;;;;1.10;1.00;;;14.30;97.20;;;;;;1756007;28;20198;-66
2023/04/23 05:51:52;;;;;;;1.75;1.00;;;14.30;97.20;;;;;;1755879;28;20711;-64
2023/04/23 05:52:44;;;;;;;1.00;0.90;;;14.20;97.20;;;;;;1755862;28;20648;-65
2023/04/23 05:53:35;;;;;;;1.50;1.15;;;14.20;97.20;;;;;;1755867;28;20198;-65
2023/04/23 05:54:27;;;;;;;1.43;1.10;;;14.20;97.20;;;;;;1755865;28;20251;-65
2023/04/23 05:55:19;;;;;;;1.52;1.00;;;14.20;97.20;;;;;;1755897;28;20198;-65
2023/04/23 05:56:10;;;;;;;1.80;1.10;;;14.20;97.20;;;;;;1755781;28;20200;-65
2023/04/23 05:57:02;;;;;;;1.10;1.00;;;14.20;97.20;;;;;;1755577;28;20225;-66
2023/04/23 05:57:54;;;;;;;1.42;1.33;;;14.10;97.20;;;;;;1755771;28;20194;-66
2023/04/23 05:58:45;;;;;;;1.60;1.30;;;14.10;97.20;;;;;;1755921;28;20262;-65
2023/04/23 05:59:37;;;;;;;1.30;1.02;;;14.10;97.20;;;;;;1755820;28;20671;-65
2023/04/23 06:00:28;;;;;;;1.10;1.00;;;14.10;97.20;;;;;;1755738;28;20205;-65
2023/04/23 06:01:19;;;;;;;1.30;1.00;;;14.10;97.20;;;;;;1755922;28;20197;-65
2023/04/23 06:02:11;;;;;;;1.20;1.10;;;14.20;97.20;;;;;;1755753;28;20198;-65
2023/04/23 06:03:03;;;;;;;1.40;1.30;;;14.20;97.20;;;;;;1755804;28;20202;-65
2023/04/23 06:03:54;;;;;;;1.10;1.00;;;14.20;97.20;;;;;;1755705;28;20582;-65
2023/04/23 06:04:46;;;;;;;1.53;1.17;;;14.20;97.20;;;;;;1755479;28;20194;-65
2023/04/23 06:05:37;;;;;;;1.10;1.00;;;14.30;97.20;;;;;;1755792;28;20887;-65
2023/04/23 06:06:28;;;;;;;1.27;1.17;;;14.30;97.20;;;;;;1755420;28;20198;-66
2023/04/23 06:07:19;;;;;;;1.48;1.15;;;14.30;97.20;;;;;;1755746;28;20446;-66
2023/04/23 06:08:11;;;;;;;1.53;1.40;;;14.40;97.20;;;;;;1755736;28;20198;-66
2023/04/23 06:09:02;;;;;;;1.85;1.35;;;14.40;97.20;;;;;;1755772;28;20209;-66
2023/04/23 06:09:53;;;;;;;1.43;1.33;;;14.50;97.20;;;;;;1755683;28;20212;-65
2023/04/23 06:10:44;;;;;;;1.40;1.00;;;14.50;97.20;;;;;;1755621;28;20463;-65
2023/04/23 06:11:36;;;;;;;1.30;1.20;;;14.60;97.20;;;;;;1755727;28;20198;-65
2023/04/23 06:12:27;;;;;;;1.52;1.30;;;14.60;97.20;;;;;;1755729;28;20456;-65
2023/04/23 06:13:18;;;;;;;1.40;1.30;;;14.60;97.20;;;;;;1755861;28;20276;-67
2023/04/23 06:14:09;;;;;;;1.42;1.33;;;14.60;97.20;;;;;;1755561;28;20201;-64
2023/04/23 06:15:01;;;;;;;1.40;1.30;;;14.70;97.20;;;;;;1755827;28;20205;-66
2023/04/23 06:15:52;;;;;;;1.65;1.20;;;14.70;97.20;;;;;;1755696;28;20201;-64
2023/04/23 06:16:44;;;;;;;2.30;1.20;;;14.70;97.20;;;;;;1755449;28;20194;-64
2023/04/23 06:17:36;;;;;;;1.27;1.17;;;14.80;97.20;;;;;;1755783;28;20210;-65
2023/04/23 06:18:28;;;;;;;1.35;1.17;;;14.80;97.20;;;;;;1755849;28;20680;-66
2023/04/23 06:19:18;;;;;;;1.48;1.20;;;14.80;97.20;;;;;;1755776;28;20225;-65
2023/04/23 06:20:10;;;;;;;1.80;1.00;;;14.90;97.20;;;;;;1755724;28;20212;-65
2023/04/23 06:21:03;;;;;;;1.30;1.20;;;14.90;97.20;;;;;;1755351;28;20234;-65
2023/04/23 06:21:55;;;;;;;1.90;1.20;;;14.90;97.20;;;;;;1755554;28;20742;-66
2023/04/23 06:22:45;;;;;;;1.10;0.80;;;15.00;97.20;;;;;;1755704;28;20711;-65
2023/04/23 06:23:37;;;;;;;1.07;0.97;;;15.00;97.20;;;;;;1755714;28;20667;-65
2023/04/23 06:24:28;;;;;;;1.05;0.95;;;15.00;97.20;;;;;;1755716;28;20233;-66
2023/04/23 06:25:19;;;;;;;1.20;1.10;;;15.00;97.20;;;;;;1755767;28;20200;-65
2023/04/23 06:26:10;;;;;;;1.55;1.15;;;15.00;97.20;;;;;;1755541;28;20205;-66
2023/04/23 06:27:02;;;;;;;1.20;1.10;;;15.00;97.20;;;;;;1755441;28;20196;-66
2023/04/23 06:27:53;;;;;;;1.20;1.10;;;15.10;97.20;;;;;;1755549;28;20683;-65
2023/04/23 06:28:45;;;;;;;1.37;0.97;;;15.10;97.20;;;;;;1755842;28;20701;-64
2023/04/23 06:29:36;;;;;;;1.23;1.13;;;15.20;97.20;;;;;;1755659;28;20451;-66
2023/04/23 06:30:28;;;;;;;1.63;1.23;;;15.20;97.20;;;;;;1755571;28;20212;-65
2023/04/23 06:31:18;;;;;;;1.60;1.15;;;15.30;97.20;;;;;;1755670;28;20202;-65
2023/04/23 06:32:10;;;;;;;1.93;1.20;;;15.30;97.20;;;;;;1755598;28;20201;-65
2023/04/23 06:33:02;;;;;;;0.90;0.90;;;15.40;97.20;;;;;;1755709;28;20202;-66
2023/04/23 06:33:54;;;;;;;1.42;1.33;;;15.40;97.20;;;;;;1755600;28;20616;-65
2023/04/23 06:34:45;;;;;;;1.20;1.10;;;15.40;97.20;;;;;;1755583;28;20253;-65
2023/04/23 06:35:37;;;;;;;2.10;0.95;;;15.40;97.20;;;;;;1755309;28;20255;-67
2023/04/23 06:36:28;;;;;;;1.40;1.05;;;15.40;97.20;;;;;;1755222;28;20232;-65
2023/04/23 06:37:19;;;;;;;1.00;0.90;;;15.40;97.20;;;;;;1755333;28;20220;-66
2023/04/23 06:38:10;;;;;;;0.85;0.80;;;15.50;97.20;;;;;;1755657;28;20217;-67
2023/04/23 06:39:02;;;;;;;1.27;0.97;;;15.50;97.20;;;;;;1755664;28;20201;-65
2023/04/23 06:39:52;;;;;;;1.73;1.10;;;15.50;97.20;;;;;;1755393;28;20202;-66
2023/04/23 06:40:44;;;;;;;1.67;0.90;;;15.50;97.20;;;;;;1755535;28;20285;-64
2023/04/23 06:41:35;;;;;;;1.10;1.00;;;15.50;97.20;;;;;;1755489;28;20209;-65
2023/04/23 06:42:27;;;;;;;2.10;1.20;;;15.50;97.20;;;;;;1755584;28;20201;-65
2023/04/23 06:43:18;;;;;;;1.48;0.90;;;15.50;97.20;;;;;;1755462;28;20927;-65
2023/04/23 06:44:10;;;;;;;1.30;1.00;;;15.50;97.20;;;;;;1755521;28;20609;-66
2023/04/23 06:45:03;;;;;;;1.50;0.98;;;15.50;97.20;;;;;;1755519;28;20921;-66
2023/04/23 06:45:55;;;;;;;1.60;1.20;;;15.60;97.20;;;;;;1755380;28;20202;-65
2023/04/23 06:46:45;;;;;;;1.40;0.88;;;15.60;97.20;;;;;;1755212;28;20696;-65
2023/04/23 06:47:37;;;;;;;1.57;1.47;;;15.60;97.20;;;;;;1755464;28;20694;-65
2023/04/23 06:48:31;;;;;;;1.30;0.90;;;15.60;97.20;;;;;;1755463;28;20197;-65
2023/04/23 06:49:22;;;;;;;1.00;0.90;;;15.60;97.20;;;;;;1755597;28;20665;-65
2023/04/23 06:50:13;;;;;;;1.45;1.20;;;15.50;97.20;;;;;;1755286;28;20229;-65
2023/04/23 06:51:05;;;;;;;1.20;1.10;;;15.60;97.20;;;;;;1755478;28;20198;-65
2023/04/23 06:51:56;;;;;;;1.30;1.20;;;15.60;97.20;;;;;;1755342;28;20662;-65
2023/04/23 06:52:48;;;;;;;1.17;1.03;;;15.60;97.20;;;;;;1755129;28;20205;-65
2023/04/23 06:53:39;;;;;;;1.95;1.23;;;15.70;97.20;;;;;;1755426;28;20198;-66
2023/04/23 06:54:30;;;;;;;1.43;1.00;;;15.70;97.20;;;;;;1755386;28;20198;-65
2023/04/23 06:55:24;;;;;;;1.10;0.88;;;15.80;97.20;;;;;;1755491;28;20208;-66
2023/04/23 06:56:16;;;;;;;1.40;0.90;;;15.80;97.20;;;;;;1755088;28;20273;-66
2023/04/23 06:57:07;;;;;;;1.10;1.00;;;15.80;97.20;;;;;;1755371;28;20217;-66
2023/04/23 06:57:59;;;;;;;0.90;0.80;;;15.90;97.20;;;;;;1755426;28;20193;-64
2023/04/23 06:58:49;;;;;;;0.80;0.80;;;15.90;97.20;;;;;;1755413;28;20206;-65
2023/04/23 06:59:41;;;;;;;0.80;0.80;;;16.00;97.20;;;;;;1755535;28;20201;-64
2023/04/23 07:00:32;;;;;;;1.42;0.80;;;16.00;97.20;;;;;;1755032;28;20217;-65
2023/04/23 07:01:24;;;;;;;0.93;0.90;;;16.00;97.20;;;;;;1755629;28;20194;-65
2023/04/23 07:02:15;;;;;;;1.40;0.88;;;16.00;97.20;;;;;;1755481;28;20209;-65
2023/04/23 07:03:06;;;;;;;1.00;0.90;;;16.10;97.20;;;;;;1755373;28;20296;-65
2023/04/23 07:03:59;;;;;;;1.15;1.05;;;16.10;97.20;;;;;;1755384;28;20451;-65
2023/04/23 07:04:50;;;;;;;2.78;1.00;;;16.10;97.20;;;;;;1755318;28;20580;-65
2023/04/23 07:05:41;;;;;;;1.33;0.90;;;16.10;97.20;;;;;;1755338;28;20205;-66
2023/04/23 07:06:33;;;;;;;1.07;0.90;;;16.10;97.20;;;;;;1755043;28;20205;-66
2023/04/23 07:07:24;;;;;;;1.23;0.90;;;16.10;97.20;;;;;;1755351;28;20236;-64
2023/04/23 07:08:16;;;;;;;0.85;0.80;;;16.10;97.20;;;;;;1755321;28;20220;-66
2023/04/23 07:09:08;;;;;;;2.00;0.90;;;16.20;97.20;;;;;;1755204;28;20202;-67
2023/04/23 07:09:59;;;;;;;1.30;1.00;;;16.20;97.20;;;;;;1754828;28;20194;-65
2023/04/23 07:10:52;;;;;;;1.10;1.00;;;16.20;97.20;;;;;;1755220;28;20709;-65
2023/04/23 07:11:43;;;;;;;1.48;1.00;;;16.20;97.20;;;;;;1755351;28;20201;-65
2023/04/23 07:12:35;;;;;;;2.88;1.20;;;16.30;97.20;;;;;;1755307;28;20209;-64
2023/04/23 07:13:26;;;;;;;1.90;0.80;;;16.30;97.20;;;;;;1755497;28;20259;-64
2023/04/23 07:14:17;;;;;;;2.08;1.00;;;16.40;97.20;;;;;;1755293;28;20202;-67
2023/04/23 07:15:10;;;;;;;1.23;0.80;;;16.50;97.20;;;;;;1755255;28;20225;-64
2023/04/23 07:16:00;;;;;;;1.10;0.88;;;16.60;97.20;;;;;;1755383;28;20205;-65
2023/04/23 07:16:53;;;;;;;1.40;0.80;;;16.60;97.20;;;;;;1754926;28;20221;-65
2023/04/23 07:17:44;;;;;;;0.80;0.70;;;16.70;97.20;;;;;;1755301;28;20208;-65
2023/04/23 07:18:36;;;;;;;1.85;0.77;;;16.70;97.20;;;;;;1755228;28;20289;-65
2023/04/23 07:19:28;;;;;;;2.55;1.10;;;16.80;97.20;;;;;;1755346;28;20209;-65
2023/04/23 07:20:20;;;;;;;1.13;0.88;;;16.90;97.20;;;;;;1755178;28;20205;-65
2023/04/23 07:21:11;;;;;;;1.60;1.30;;;17.00;97.20;;;;;;1755247;28;20238;-66
2023/04/23 07:22:02;;;;;;;1.47;0.83;;;17.10;97.20;;;;;;1755308;28;20208;-66
2023/04/23 07:22:53;;;;;;;0.90;0.70;;;17.20;97.20;;;;;;1755281;28;20581;-65
2023/04/23 07:23:45;;;;;;;1.80;0.90;;;17.30;97.20;;;;;;1755263;28;20202;-65
2023/04/23 07:24:36;;;;;;;0.80;0.70;;;17.40;97.20;;;;;;1755014;28;20741;-66
2023/04/23 07:25:27;;;;;;;1.23;0.90;;;17.40;97.20;;;;;;1755311;28;20629;-65
2023/04/23 07:26:20;;;;;;;1.00;0.90;;;17.40;97.20;;;;;;1754758;28;20197;-65
2023/04/23 07:27:11;;;;;;;3.85;1.10;;;17.40;97.20;;;;;;1755141;28;20252;-65
2023/04/23 07:28:02;;;;;;;1.00;0.90;;;17.40;97.20;;;;;;1755328;28;20201;-65
2023/04/23 07:28:54;;;;;;;0.95;0.85;;;17.50;97.20;;;;;;1755240;28;20277;-65
2023/04/23 07:29:45;;;;;;;1.10;0.90;;;17.50;97.20;;;;;;1755246;28;20206;-65
2023/04/23 07:30:37;;;;;;;1.17;1.07;;;17.50;97.20;;;;;;1755003;28;20225;-65
2023/04/23 07:31:27;;;;;;;1.23;1.13;;;17.50;97.20;;;;;;1755216;28;20205;-65
2023/04/23 07:32:22;;;;;;;1.10;0.90;;;17.40;97.20;;;;;;1755404;28;20193;-64
2023/04/23 07:33:13;;;;;;;1.70;1.25;;;17.40;97.20;;;;;;1755219;28;20229;-65
2023/04/23 07:34:05;;;;;;;1.10;0.93;;;17.40;97.20;;;;;;1755277;28;20694;-65
2023/04/23 07:34:57;;;;;;;1.98;0.95;;;17.40;97.20;;;;;;1755172;28;20483;-64
2023/04/23 07:35:49;;;;;;;1.00;0.90;;;17.40;97.20;;;;;;1755202;28;20581;-64
2023/04/23 07:36:39;;;;;;;1.15;1.05;;;17.40;97.20;;;;;;1754851;28;20689;-66
2023/04/23 07:37:31;;;;;;;6.33;1.20;;;17.50;97.20;;;;;;1755137;28;20588;-65
2023/04/23 07:38:22;;;;;;;1.10;0.90;;;17.50;97.20;;;;;;1755203;28;20209;-64
2023/04/23 07:39:14;;;;;;;2.10;1.00;;;17.50;97.20;;;;;;1754986;28;20186;-65
2023/04/23 07:40:06;;;;;;;2.35;1.30;;;17.50;97.20;;;;;;1755250;28;20204;-65
2023/04/23 07:40:58;;;;;;;1.45;0.90;;;17.40;97.20;;;;;;1755131;28;20710;-65
2023/04/23 07:41:49;;;;;;;1.30;0.95;;;17.40;97.20;;;;;;1755183;28;20202;-65
2023/04/23 07:42:40;;;;;;;3.03;1.20;;;17.40;97.20;;;;;;1755300;28;20202;-65
2023/04/23 07:43:31;;;;;;;1.10;1.00;;;17.40;97.20;;;;;;1755145;28;20217;-64
2023/04/23 07:44:23;;;;;;;1.20;0.90;;;17.40;97.20;;;;;;1755198;28;20197;-65
2023/04/23 07:45:14;;;;;;;1.45;1.20;;;17.50;97.20;;;;;;1755161;28;20190;-65
2023/04/23 07:46:07;;;;;;;1.48;1.10;;;17.50;97.20;;;;;;1755152;28;20212;-65
2023/04/23 07:46:59;;;;;;;1.88;1.00;;;17.40;97.20;;;;;;1754681;28;20201;-65
2023/04/23 07:47:50;;;;;;;1.10;0.90;;;17.40;97.20;;;;;;1755145;28;20210;-65
2023/04/23 07:48:41;;;;;;;1.38;1.20;;;17.50;97.20;;;;;;1755197;28;20620;-65
2023/04/23 07:49:33;;;;;;;1.20;1.10;;;17.40;97.20;;;;;;1755199;28;20544;-65
2023/04/23 07:50:25;;;;;;;1.10;0.90;;;17.50;97.20;;;;;;1755080;28;20205;-65
2023/04/23 07:51:17;;;;;;;1.17;1.08;;;17.50;97.20;;;;;;1754654;28;20198;-65
2023/04/23 07:52:07;;;;;;;1.65;1.20;;;17.50;97.20;;;;;;1755050;28;20244;-65
2023/04/23 07:52:59;;;;;;;1.10;0.90;;;17.50;97.20;;;;;;1754863;28;20194;-65
2023/04/23 07:53:53;;;;;;;1.42;1.20;;;17.60;97.20;;;;;;1754982;28;20440;-65
2023/04/23 07:54:45;;;;;;;1.38;0.95;;;17.60;97.20;;;;;;1755107;28;20244;-65
2023/04/23 07:55:36;;;;;;;1.67;1.10;;;17.70;97.20;;;;;;1755099;28;20202;-65
2023/04/23 07:56:31;;;;;;;1.25;1.15;;;17.70;97.20;;;;;;1754772;28;20207;-67
2023/04/23 07:57:21;;;;;;;1.30;1.00;;;17.80;97.20;;;;;;1754997;28;20296;-65
2023/04/23 07:58:13;;;;;;;1.10;1.00;;;17.90;97.20;;;;;;1755126;28;20213;-64
2023/04/23 07:59:04;;;;;;;1.35;1.25;;;18.10;97.20;;;;;;1755116;28;20207;-65
2023/04/23 07:59:56;;;;;;;2.20;1.25;;;18.20;97.20;;;;;;1755146;28;20684;-65
2023/04/23 08:00:47;;;;;;;1.10;1.00;;;18.40;97.20;;;;;;1754941;28;20217;-65
2023/04/23 08:01:38;;;;;;;1.10;0.90;;;18.60;97.20;;;;;;1755033;28;20193;-65
2023/04/23 08:02:29;;;;;;;1.10;0.95;;;18.80;97.20;;;;;;1755052;28;20206;-66
2023/04/23 08:03:21;;;;;;;1.10;0.90;;;18.90;97.20;;;;;;1755076;28;20197;-65
2023/04/23 08:04:12;;;;;;;1.20;0.90;;;19.00;97.20;;;;;;1755043;28;20201;-64
2023/04/23 08:05:05;;;;;;;1.13;0.93;;;19.10;97.20;;;;;;1754802;28;20198;-66
2023/04/23 08:05:57;;;;;;;1.60;1.30;;;19.20;97.20;;;;;;1755083;28;20258;-65
2023/04/23 08:06:49;;;;;;;2.10;1.00;;;19.30;97.20;;;;;;1754600;28;20202;-66
2023/04/23 08:07:39;;;;;;;1.38;1.27;;;19.30;97.20;;;;;;1755060;28;20202;-65
2023/04/23 08:08:31;;;;;;;1.37;1.17;;;19.20;97.20;;;;;;1755107;28;20743;-65
2023/04/23 08:09:22;;;;;;;1.98;1.30;;;19.20;97.20;;;;;;1754950;28;20225;-65
2023/04/23 08:10:14;;;;;;;1.27;0.93;;;19.10;97.20;;;;;;1754908;28;20355;-65
2023/04/23 08:11:05;;;;;;;1.60;0.90;;;19.00;97.20;;;;;;1754991;28;20198;-65
2023/04/23 08:11:57;;;;;;;1.33;1.23;;;19.00;97.20;;;;;;1754918;28;20200;-65
2023/04/23 08:12:47;;;;;;;2.38;1.10;;;19.00;97.20;;;;;;1755052;28;20695;-65
2023/04/23 08:13:39;;;;;;;1.10;1.00;;;19.00;97.20;;;;;;1754976;28;20342;-65
2023/04/23 08:14:30;;;;;;;1.80;1.10;;;19.10;97.20;;;;;;1754977;28;20197;-65
2023/04/23 08:15:22;;;;;;;1.20;1.10;;;19.10;97.20;;;;;;1754885;28;20225;-65
2023/04/23 08:16:12;;;;;;;1.10;1.00;;;19.10;97.20;;;;;;1754775;28;20248;-66
2023/04/23 08:17:03;;;;;;;2.53;1.20;;;19.10;97.20;;;;;;1754688;28;20240;-65
2023/04/23 08:17:55;;;;;;;1.27;1.07;;;19.10;97.20;;;;;;1754950;28;20201;-65
2023/04/23 08:18:46;;;;;;;1.25;1.10;;;19.20;97.20;;;;;;1754966;28;20198;-65
2023/04/23 08:19:37;;;;;;;1.17;1.07;;;19.20;97.20;;;;;;1754711;28;20198;-65
2023/04/23 08:20:28;;;;;;;1.45;1.20;;;19.20;97.20;;;;;;1754819;28;20456;-64
2023/04/23 08:21:23;;;;;;;1.63;1.13;;;19.20;97.20;;;;;;1754928;28;20186;-65
2023/04/23 08:22:15;;;;;;;1.15;1.05;;;19.20;97.20;;;;;;1754850;28;20834;-66
2023/04/23 08:23:06;;;;;;;1.00;0.90;;;19.20;97.20;;;;;;1754915;28;20201;-67
2023/04/23 08:23:57;;;;;;;1.40;1.10;;;19.30;97.20;;;;;;1754955;28;20198;-65
2023/04/23 08:24:49;;;;;;;1.37;1.27;;;19.20;97.20;;;;;;1754929;28;20194;-65
2023/04/23 08:25:40;;;;;;;1.50;1.10;;;19.20;97.20;;;;;;1754837;28;20194;-67
2023/04/23 08:26:31;;;;;;;1.23;1.00;;;19.20;97.20;;;;;;1754614;28;20237;-65
2023/04/23 08:27:22;;;;;;;1.77;0.90;;;19.30;97.20;;;;;;1754883;28;20205;-66
2023/04/23 08:28:14;;;;;;;1.83;1.07;;;19.30;97.20;;;;;;1754902;28;20202;-66
2023/04/23 08:29:05;;;;;;;1.42;0.93;;;19.30;97.20;;;;;;1754943;28;20201;-66
2023/04/23 08:29:57;;;;;;;1.30;1.03;;;19.40;97.20;;;;;;1754870;28;20194;-65
2023/04/23 08:30:48;;;;;;;1.55;0.98;;;19.40;97.20;;;;;;1754658;28;20472;-65
2023/04/23 08:31:40;;;;;;;1.17;1.07;;;19.50;97.20;;;;;;1754951;28;20194;-66
2023/04/23 08:32:30;;;;;;;1.40;1.15;;;19.50;97.20;;;;;;1754926;28;20201;-65
2023/04/23 08:33:22;;;;;;;1.97;1.07;;;19.40;97.20;;;;;;1754860;28;20645;-65
2023/04/23 08:34:14;;;;;;;1.67;0.98;;;19.40;97.20;;;;;;1754560;28;20194;-66
2023/04/23 08:35:06;;;;;;;1.35;1.25;;;19.30;97.20;;;;;;1755007;28;20367;-66
2023/04/23 08:35:57;;;;;;;1.80;1.15;;;19.30;97.20;;;;;;1754635;28;20610;-65
2023/04/23 08:36:50;;;;;;;1.40;0.90;;;19.30;97.20;;;;;;1754534;28;20262;-66
2023/04/23 08:37:41;;;;;;;1.70;0.98;;;19.30;97.20;;;;;;1754853;28;20204;-65
2023/04/23 08:38:33;;;;;;;1.43;0.97;;;19.40;97.20;;;;;;1754861;28;20355;-65
2023/04/23 08:39:23;;;;;;;1.20;1.10;;;19.40;97.20;;;;;;1754834;28;20202;-65
2023/04/23 08:40:15;;;;;;;1.10;0.90;;;19.40;97.20;;;;;;1754707;28;20208;-67
2023/04/23 08:41:10;;;;;;;0.90;0.82;;;19.50;97.20;;;;;;1754924;28;20202;-66
2023/04/23 08:42:11;;;;;;;1.30;1.00;;;19.70;97.20;;;;;;1754860;28;20201;-66
2023/04/23 08:43:06;;;;;;;1.05;0.95;;;19.80;97.20;;;;;;1754975;28;20657;-65
2023/04/23 08:44:07;;;;;;;1.92;0.90;;;20.00;97.20;;;;;;1754769;28;20198;-66
2023/04/23 08:44:58;;;;;;;1.25;0.80;;;20.10;97.20;;;;;;1754853;28;20205;-65
2023/04/23 08:45:50;;;;;;;2.50;1.07;;;20.10;97.20;;;;;;1754876;28;20202;-64
2023/04/23 08:46:42;;;;;;;1.10;1.00;;;20.10;97.20;;;;;;1754448;28;20444;-65
2023/04/23 08:47:35;;;;;;;1.27;1.10;;;20.20;97.20;;;;;;1754789;28;20682;-66
2023/04/23 08:48:28;;;;;;;2.15;1.00;;;20.20;97.20;;;;;;1754562;28;20706;-66
2023/04/23 08:49:20;;;;;;;2.30;1.20;;;20.30;97.20;;;;;;1754865;28;20196;-65
2023/04/23 08:50:13;;;;;;;1.10;1.00;;;20.30;97.20;;;;;;1754741;28;20194;-66
2023/04/23 08:51:07;;;;;;;2.03;1.00;;;20.30;97.20;;;;;;1754884;28;20208;-64
2023/04/23 08:52:15;;;;;;;1.15;1.05;;;20.30;97.20;;;;;;1754882;28;20225;-65
2023/04/23 08:53:06;;;;;;;1.40;1.20;;;20.30;97.20;;;;;;1754862;28;20292;-64
2023/04/23 08:54:02;;;;;;;1.90;1.75;;;20.30;97.20;;;;;;1754762;28;20217;-66
2023/04/23 08:54:58;;;;;;;2.55;1.65;;;20.40;97.20;;;;;;1754798;28;20254;-65
2023/04/23 08:55:50;;;;;;;2.35;1.20;;;20.50;97.20;;;;;;1754734;28;20253;-65
2023/04/23 08:56:42;;;;;;;1.35;1.23;;;20.50;97.20;;;;;;1754552;28;20297;-66
2023/04/23 08:57:33;;;;;;;1.58;1.45;;;20.50;97.20;;;;;;1754720;28;20577;-65
2023/04/23 08:58:26;;;;;;;1.73;0.98;;;20.60;97.20;;;;;;1755007;28;20258;-64
2023/04/23 08:59:17;;;;;;;1.17;0.95;;;20.70;97.20;;;;;;1754808;28;20194;-65
2023/04/23 09:00:11;;;;;;;1.10;0.90;;;20.70;97.20;;;;;;1754843;28;20201;-65
2023/04/23 09:01:02;;;;;;;1.30;1.20;;;20.80;97.20;;;;;;1754829;28;20653;-65
2023/04/23 09:01:55;;;;;;;1.27;1.17;;;20.90;97.20;;;;;;1754823;28;20221;-65
2023/04/23 09:02:47;;;;;;;2.45;1.25;;;21.00;97.20;;;;;;1754490;28;20297;-65
2023/04/23 09:03:40;;;;;;;1.13;1.02;;;21.10;97.20;;;;;;1755790;28;20266;-64
2023/04/23 09:04:31;;;;;;;1.55;1.10;;;21.30;97.20;;;;;;1756272;28;20593;-65
2023/04/23 09:05:23;;;;;;;1.20;1.02;;;21.40;97.20;;;;;;1756281;28;20190;-65
2023/04/23 09:06:14;;;;;;;1.20;0.90;;;21.60;97.20;;;;;;1755916;28;20197;-69
2023/04/23 09:07:10;;;;;;;1.50;1.00;;;21.70;97.20;;;;;;1756242;28;20205;-66
2023/04/23 09:08:00;;;;;;;1.98;1.02;;;21.70;97.20;;;;;;1756398;28;20193;-65
2023/04/23 09:08:52;;;;;;;1.30;1.00;;;21.70;97.20;;;;;;1756140;28;20203;-66
2023/04/23 09:09:43;;;;;;;1.00;0.90;;;21.80;97.20;;;;;;1756197;28;20679;-66
2023/04/23 09:10:39;;;;;;;1.50;1.13;;;21.80;97.20;;;;;;1756138;28;20594;-65
2023/04/23 09:11:30;;;;;;;1.35;1.10;;;21.90;97.20;;;;;;1756216;28;20202;-65
2023/04/23 09:12:23;;;;;;;1.48;1.15;;;21.90;97.20;;;;;;1756266;28;20280;-67
2023/04/23 09:13:13;;;;;;;1.60;1.27;;;22.00;97.20;;;;;;1756159;28;20221;-65
2023/04/23 09:14:05;;;;;;;1.93;1.20;;;22.00;97.20;;;;;;1756207;28;20208;-65
2023/04/23 09:14:56;;;;;;;1.10;1.00;;;22.00;97.20;;;;;;1756116;28;20209;-65
2023/04/23 09:15:48;;;;;;;3.30;1.10;;;22.00;97.20;;;;;;1756071;28;20225;-66
2023/04/23 09:16:39;;;;;;;1.20;0.90;;;21.90;97.20;;;;;;1755793;28;20475;-66
2023/04/23 09:17:32;;;;;;;1.48;0.80;;;21.90;97.20;;;;;;1755768;28;20250;-66
2023/04/23 09:18:23;;;;;;;2.88;0.90;;;21.90;97.20;;;;;;1756106;28;20194;-66
2023/04/23 09:19:15;;;;;;;1.20;0.98;;;21.90;97.20;;;;;;1756023;28;20276;-66
2023/04/23 09:20:08;;;;;;;1.88;1.02;;;21.90;97.20;;;;;;1756148;28;20201;-65
2023/04/23 09:21:02;;;;;;;2.65;0.90;;;21.90;97.20;;;;;;1755949;28;20308;-65
2023/04/23 09:21:53;;;;;;;2.03;1.00;;;21.90;97.20;;;;;;1756101;28;20692;-65
2023/04/23 09:22:48;;;;;;;1.55;1.20;;;22.00;97.20;;;;;;1756222;28;20722;-65
2023/04/23 09:23:40;;;;;;;1.42;1.30;;;22.00;97.20;;;;;;1756141;28;20198;-65
2023/04/23 09:24:34;;;;;;;1.20;1.10;;;22.10;97.20;;;;;;1756038;28;20665;-65
2023/04/23 09:25:24;;;;;;;1.67;1.20;;;22.30;97.20;;;;;;1756188;28;20206;-65
2023/04/23 09:26:20;;;;;;;1.00;0.87;;;22.40;97.20;;;;;;1755781;28;20649;-65
2023/04/23 09:27:11;;;;;;;1.27;1.15;;;22.50;97.20;;;;;;1756047;28;20255;-65
2023/04/23 09:28:02;;;;;;;1.40;0.97;;;22.60;97.20;;;;;;1756207;28;20190;-64
2023/04/23 09:28:53;;;;;;;1.10;0.90;;;22.60;97.20;;;;;;1756104;28;20467;-65
2023/04/23 09:29:46;;;;;;;2.60;1.20;;;22.60;97.20;;;;;;1756090;28;20205;-66